Time;durP1;ratioP1;P1;durP2;ratioP2;P2;SDS_P1;SDS_P2;PMS_P1;PMS_P2;Temp;Humidity;BMP_temperature;BMP_pressure;BME280_temperature;BME280_humidity;BME280_pressure;Samples;Min_cycle;Max_cycle;Signal;HPM_P1;HPM_P2
2021/07/06 00:00:14;;;;;;;2.20;1.70;;;;;;;22.43;64.96;99689.80;1659595;85;21006;-73
2021/07/06 00:02:42;;;;;;;1.90;1.80;;;;;;;22.49;64.80;99695.48;1672484;85;21023;-73
2021/07/06 00:05:10;;;;;;;3.90;2.35;;;;;;;22.51;64.65;99704.70;1672842;85;21094;-74
2021/07/06 00:07:37;;;;;;;2.17;2.08;;;;;;;22.47;64.74;99701.75;1672001;85;21150;-74
2021/07/06 00:10:09;;;;;;;5.87;3.10;;;;;;;22.42;64.77;99700.97;1670543;85;21015;-74
2021/07/06 00:12:37;;;;;;;2.70;1.50;;;;;;;22.39;64.75;99713.74;1661994;85;20996;-75
2021/07/06 00:15:07;;;;;;;1.72;1.62;;;;;;;22.40;64.79;99708.59;1669041;85;20991;-73
2021/07/06 00:17:37;;;;;;;1.82;1.75;;;;;;;22.44;64.64;99705.57;1650601;85;21060;-74
2021/07/06 00:20:10;;;;;;;4.47;2.20;;;;;;;22.45;64.66;99708.53;1658533;85;20998;-74
2021/07/06 00:22:38;;;;;;;4.30;2.77;;;;;;;22.40;64.80;99714.02;1655086;85;20993;-74
2021/07/06 00:25:09;;;;;;;2.15;1.95;;;;;;;22.34;64.77;99708.62;1669702;84;21067;-74
2021/07/06 00:27:35;;;;;;;2.22;1.67;;;;;;;22.28;64.85;99711.11;1671071;84;21152;-73
2021/07/06 00:30:05;;;;;;;2.45;1.47;;;;;;;22.30;64.90;99714.88;1683675;84;21008;-73
2021/07/06 00:32:32;;;;;;;2.67;2.37;;;;;;;22.30;64.88;99713.52;1671406;84;21056;-74
2021/07/06 00:34:58;;;;;;;1.75;1.65;;;;;;;22.30;64.79;99712.16;1672059;84;20992;-73
2021/07/06 00:37:24;;;;;;;4.78;1.80;;;;;;;22.23;64.93;99712.46;1672095;84;21583;-74
2021/07/06 00:39:50;;;;;;;2.33;2.12;;;;;;;22.20;64.97;99721.70;1672256;84;21088;-74
2021/07/06 00:42:16;;;;;;;2.90;2.08;;;;;;;22.15;65.14;99714.39;1664189;84;21080;-73
2021/07/06 00:44:46;;;;;;;2.27;1.92;;;;;;;22.13;65.11;99722.84;1671435;84;20972;-74
2021/07/06 00:47:12;;;;;;;3.62;2.40;;;;;;;22.14;65.09;99724.44;1677423;84;21040;-73
2021/07/06 00:49:38;;;;;;;2.50;2.30;;;;;;;22.13;65.16;99724.72;1672178;84;21001;-74
2021/07/06 00:52:06;;;;;;;2.20;2.00;;;;;;;22.07;65.26;99723.12;1672297;84;21044;-75
2021/07/06 00:54:32;;;;;;;2.27;2.17;;;;;;;22.03;65.42;99727.50;1672631;84;21056;-74
2021/07/06 00:57:01;;;;;;;2.52;2.33;;;;;;;21.99;65.42;99720.45;1672419;84;21024;-73
2021/07/06 00:59:27;;;;;;;1.82;1.72;;;;;;;22.03;65.36;99726.95;1674990;84;21482;-74
2021/07/06 01:01:53;;;;;;;2.47;1.75;;;;;;;22.00;65.39;99724.81;1672446;84;21024;-74
2021/07/06 01:04:19;;;;;;;2.22;2.12;;;;;;;21.96;65.50;99737.28;1676334;84;21000;-73
2021/07/06 01:06:45;;;;;;;2.15;2.05;;;;;;;21.89;65.70;99727.30;1673376;84;20969;-74
2021/07/06 01:09:12;;;;;;;3.30;1.67;;;;;;;21.85;65.84;99737.89;1665563;84;21533;-75
2021/07/06 01:11:38;;;;;;;5.30;2.20;;;;;;;21.86;65.81;99734.08;1669609;84;20937;-74
2021/07/06 01:14:05;;;;;;;1.90;1.80;;;;;;;21.84;65.86;99736.81;1662866;86;21014;-75
2021/07/06 01:16:33;;;;;;;4.50;2.37;;;;;;;21.77;66.03;99731.67;1610480;88;21091;-76
2021/07/06 01:18:59;;;;;;;1.47;1.37;;;;;;;21.72;66.14;99730.36;1672735;84;21028;-74
2021/07/06 01:21:26;;;;;;;1.60;1.50;;;;;;;21.70;66.25;99736.58;1665596;84;21063;-73
2021/07/06 01:23:52;;;;;;;;;;;;;;;21.71;66.22;99734.95;1669555;84;20928;-74
2021/07/06 01:26:19;;;;;;;;;;;;;;;21.70;66.25;99743.36;1674883;84;20445;-73
2021/07/06 01:28:45;;;;;;;4.33;2.22;;;;;;;21.58;66.57;99744.48;1667754;84;20199;-74
2021/07/06 01:31:11;;;;;;;5.75;2.50;;;;;;;21.49;66.80;99752.09;1672947;84;21482;-75
2021/07/06 01:33:38;;;;;;;4.33;2.02;;;;;;;21.49;66.92;99754.81;1662544;84;21020;-74
2021/07/06 01:36:09;;;;;;;4.05;1.75;;;;;;;21.54;66.86;99762.39;1662552;84;21071;-74
2021/07/06 01:38:36;;;;;;;4.10;2.50;;;;;;;21.56;66.84;99766.19;1670680;84;21108;-75
2021/07/06 01:41:05;;;;;;;2.22;2.10;;;;;;;21.53;66.85;99756.72;1644284;86;21076;-76
2021/07/06 01:43:33;;;;;;;4.12;2.37;;;;;;;21.49;66.98;99767.84;1667473;84;21515;-74
2021/07/06 01:46:02;;;;;;;2.05;1.85;;;;;;;21.42;67.13;99768.64;1666633;86;21134;-74
2021/07/06 01:48:28;;;;;;;4.20;2.37;;;;;;;21.41;67.19;99767.55;1678920;84;21545;-75
2021/07/06 01:50:55;;;;;;;4.75;1.55;;;;;;;21.45;67.22;99768.10;1667952;84;21528;-74
2021/07/06 01:53:22;;;;;;;6.83;2.20;;;;;;;21.46;67.17;99775.16;1677184;84;21070;-75
2021/07/06 01:55:51;;;;;;;2.60;2.08;;;;;;;21.44;67.27;99779.22;1679239;84;21096;-75
2021/07/06 01:58:21;;;;;;;3.35;2.67;;;;;;;21.38;67.41;99775.70;1683288;84;21078;-74
2021/07/06 02:00:55;;;;;;;3.33;2.60;;;;;;;21.35;67.47;99780.30;1684577;84;21005;-74
2021/07/06 02:03:22;;;;;;;3.42;1.70;;;;;;;21.35;67.53;99781.66;1684542;84;21099;-74
2021/07/06 02:05:58;;;;;;;4.55;2.12;;;;;;;21.40;67.39;99768.11;1684329;83;21027;-75
2021/07/06 02:08:27;;;;;;;2.58;2.37;;;;;;;21.43;67.34;99782.45;1683653;84;21004;-74
2021/07/06 02:10:58;;;;;;;2.60;2.47;;;;;;;21.42;67.40;99788.14;1687625;84;20957;-75
2021/07/06 02:13:25;;;;;;;3.20;2.58;;;;;;;21.42;67.39;99791.68;1705517;83;21026;-74
2021/07/06 02:15:56;;;;;;;7.65;2.25;;;;;;;21.44;67.36;99797.67;1701869;83;20995;-74
2021/07/06 02:18:23;;;;;;;2.05;1.95;;;;;;;21.50;67.20;99799.28;1706014;83;20956;-74
2021/07/06 02:20:53;;;;;;;6.08;2.20;;;;;;;21.55;67.07;99793.05;1702626;83;20984;-74
2021/07/06 02:23:21;;;;;;;2.40;2.17;;;;;;;21.56;67.04;99795.46;1692922;83;21046;-74
2021/07/06 02:25:50;;;;;;;3.17;2.72;;;;;;;21.62;66.89;99796.81;1703215;83;20996;-74
2021/07/06 02:28:17;;;;;;;3.35;2.25;;;;;;;21.70;66.67;99795.72;1698879;83;21572;-75
2021/07/06 02:30:43;;;;;;;1.87;1.70;;;;;;;21.83;66.32;99797.05;1701834;83;21468;-75
2021/07/06 02:33:09;;;;;;;;;;;;;;;22.01;65.82;99799.68;1705044;83;21012;-74
2021/07/06 02:35:35;;;;;;;2.10;1.92;;;;;;;22.23;65.02;99793.89;1706771;83;20111;-74
2021/07/06 02:38:04;;;;;;;2.50;2.05;;;;;;;22.40;64.52;99803.63;1701991;83;21022;-74
2021/07/06 02:40:31;;;;;;;6.25;2.30;;;;;;;22.54;64.10;99801.89;1702213;83;21499;-75
2021/07/06 02:42:59;;;;;;;2.40;1.95;;;;;;;22.69;63.47;99803.14;1702237;83;20983;-75
2021/07/06 02:45:27;;;;;;;4.37;2.45;;;;;;;22.87;63.00;99804.39;1700882;83;21011;-74
2021/07/06 02:47:55;;;;;;;4.70;2.40;;;;;;;23.09;62.18;99803.98;1699886;83;20988;-74
2021/07/06 02:50:25;;;;;;;3.25;2.25;;;;;;;23.31;61.77;99806.78;1694682;83;21075;-75
2021/07/06 02:52:54;;;;;;;3.42;3.10;;;;;;;23.56;60.76;99807.07;1702539;83;21528;-74
2021/07/06 02:55:21;;;;;;;2.00;1.90;;;;;;;23.74;60.22;99804.17;1684907;84;21527;-75
2021/07/06 02:57:48;;;;;;;5.72;2.70;;;;;;;23.90;59.44;99805.66;1684210;84;21052;-75
2021/07/06 03:00:25;;;;;;;6.05;2.60;;;;;;;24.02;59.23;99802.52;1684715;84;21767;-74
2021/07/06 03:02:56;;;;;;;2.02;1.92;;;;;;;24.21;58.33;99803.91;1680689;84;21550;-74
2021/07/06 03:05:25;;;;;;;6.47;1.67;;;;;;;24.46;58.00;99800.58;1684739;84;21035;-74
2021/07/06 03:07:53;;;;;;;3.50;1.65;;;;;;;24.77;57.16;99800.16;1681981;84;21090;-75
2021/07/06 03:10:25;;;;;;;1.77;1.67;;;;;;;25.09;56.44;99804.02;1679087;84;22180;-74
2021/07/06 03:12:52;;;;;;;1.98;1.90;;;;;;;25.37;55.17;99801.67;1685440;84;20976;-74
2021/07/06 03:15:28;;;;;;;2.72;2.42;;;;;;;25.56;55.00;99809.78;1688420;84;20991;-74
2021/07/06 03:17:56;;;;;;;5.12;2.00;;;;;;;25.88;54.22;99815.44;1684708;84;20988;-74
2021/07/06 03:20:26;;;;;;;1.70;1.55;;;;;;;26.29;53.21;99814.64;1677118;84;21112;-74
2021/07/06 03:22:53;;;;;;;1.77;1.67;;;;;;;26.64;51.75;99810.91;1683434;84;21499;-76
2021/07/06 03:25:22;;;;;;;1.87;1.65;;;;;;;26.60;51.38;99814.25;1680464;84;21103;-76
2021/07/06 03:27:49;;;;;;;5.55;1.60;;;;;;;26.50;51.61;99825.92;1695365;84;21486;-74
2021/07/06 03:30:22;;;;;;;5.67;1.85;;;;;;;26.52;51.73;99827.25;1681619;84;21031;-75
2021/07/06 03:32:51;;;;;;;2.17;1.27;;;;;;;26.61;51.07;99827.34;1681657;84;21100;-74
2021/07/06 03:35:17;;;;;;;1.90;1.80;;;;;;;26.75;51.14;99835.52;1684430;84;21147;-75
2021/07/06 03:37:44;;;;;;;1.87;1.62;;;;;;;26.88;50.76;99836.56;1682685;84;21083;-74
2021/07/06 03:40:12;;;;;;;3.90;1.98;;;;;;;26.89;50.52;99839.56;1686975;84;21043;-75
2021/07/06 03:42:39;;;;;;;2.30;2.20;;;;;;;26.95;50.70;99837.75;1685702;84;21544;-75
2021/07/06 03:45:08;;;;;;;2.65;1.98;;;;;;;27.18;50.32;99835.84;1678057;84;21046;-76
2021/07/06 03:47:35;;;;;;;1.85;1.55;;;;;;;27.41;49.42;99833.66;1683549;84;21836;-75
2021/07/06 03:50:01;;;;;;;2.47;1.67;;;;;;;27.61;49.02;99831.75;1684556;84;20995;-73
2021/07/06 03:52:28;;;;;;;1.90;1.77;;;;;;;27.74;48.60;99834.95;1684030;84;21012;-75
2021/07/06 03:54:54;;;;;;;3.70;2.20;;;;;;;27.92;48.40;99837.81;1685288;84;21194;-75
2021/07/06 03:57:29;;;;;;;1.95;1.85;;;;;;;28.17;47.83;99832.73;1684737;83;21597;-76
2021/07/06 04:00:07;;;;;;;4.00;1.13;;;;;;;28.36;47.34;99833.24;1685132;83;21007;-75
2021/07/06 04:02:39;;;;;;;2.40;2.12;;;;;;;28.56;46.72;99829.12;1686916;83;20999;-76
2021/07/06 04:05:09;;;;;;;3.52;1.45;;;;;;;28.61;46.51;99837.16;1686975;83;21072;-75
2021/07/06 04:07:38;;;;;;;1.62;1.52;;;;;;;28.76;46.41;99837.25;1686721;83;21574;-75
2021/07/06 04:10:08;;;;;;;2.22;2.10;;;;;;;29.12;45.81;99841.04;1686222;83;21336;-75
2021/07/06 04:12:39;;;;;;;6.65;1.95;;;;;;;29.48;44.74;99844.55;1684712;83;21062;-75
2021/07/06 04:15:09;;;;;;;2.15;1.70;;;;;;;29.46;44.47;99839.93;1687621;83;21072;-75
2021/07/06 04:17:35;;;;;;;6.53;2.00;;;;;;;29.34;44.90;99839.81;1682530;83;21019;-75
2021/07/06 04:20:04;;;;;;;1.62;1.52;;;;;;;29.31;45.01;99833.85;1686959;83;21863;-74
2021/07/06 04:22:30;;;;;;;2.17;2.05;;;;;;;29.40;44.80;99829.69;1682027;84;21507;-75
2021/07/06 04:24:57;;;;;;;2.17;2.02;;;;;;;29.28;44.66;99830.95;1686349;83;22762;-74
2021/07/06 04:27:24;;;;;;;2.22;2.05;;;;;;;28.77;45.64;99834.77;1682891;83;21000;-74
2021/07/06 04:29:52;;;;;;;4.83;2.15;;;;;;;28.58;46.14;99841.14;1687596;83;21052;-75
2021/07/06 04:32:19;;;;;;;2.17;1.95;;;;;;;28.63;46.24;99839.59;1688080;83;21064;-74
2021/07/06 04:34:46;;;;;;;2.65;2.02;;;;;;;28.58;46.36;99838.39;1685116;83;21035;-75
2021/07/06 04:37:13;;;;;;;2.42;2.17;;;;;;;28.26;47.09;99850.00;1686877;83;20988;-75
2021/07/06 04:39:40;;;;;;;2.40;1.75;;;;;;;27.80;47.99;99855.36;1686367;84;20967;-75
2021/07/06 04:42:08;;;;;;;2.37;2.10;;;;;;;27.51;49.03;99847.09;1690268;83;21000;-75
2021/07/06 04:44:34;;;;;;;3.27;2.15;;;;;;;26.98;49.77;99810.36;1686294;84;20987;-75
2021/07/06 04:47:00;;;;;;;4.08;2.37;;;;;;;26.86;50.77;99852.48;1683117;84;21063;-75
2021/07/06 04:49:30;;;;;;;2.67;1.98;;;;;;;26.74;51.16;99863.96;1685725;83;21004;-74
2021/07/06 04:51:55;;;;;;;4.67;2.83;;;;;;;26.68;51.45;99861.91;1686692;83;21064;-76
2021/07/06 04:54:24;;;;;;;2.42;2.33;;;;;;;26.48;51.90;99859.02;1687723;83;21528;-75
2021/07/06 04:56:54;;;;;;;3.08;2.52;;;;;;;26.45;52.12;99861.55;1692124;83;21044;-74
2021/07/06 04:59:21;;;;;;;4.08;2.80;;;;;;;26.38;52.78;99867.45;1693830;83;21280;-75
2021/07/06 05:01:47;;;;;;;2.35;2.15;;;;;;;26.27;52.78;99867.41;1694927;83;20952;-76
2021/07/06 05:04:15;;;;;;;3.15;2.60;;;;;;;26.15;53.28;99859.73;1694305;83;20995;-76
2021/07/06 05:06:42;;;;;;;3.67;2.67;;;;;;;26.15;53.10;99859.73;1692143;83;20996;-76
2021/07/06 05:09:10;;;;;;;3.98;3.02;;;;;;;26.01;53.64;99858.35;1694657;83;21065;-74
2021/07/06 05:11:37;;;;;;;3.10;2.80;;;;;;;25.85;54.16;99856.45;1694188;83;21044;-76
2021/07/06 05:14:04;;;;;;;3.77;3.08;;;;;;;25.78;54.27;99862.86;1692746;83;21013;-78
2021/07/06 05:16:33;;;;;;;3.30;2.67;;;;;;;25.75;54.35;99852.00;1693475;83;21020;-79
2021/07/06 05:19:00;;;;;;;6.95;2.83;;;;;;;25.89;54.24;99858.02;1695187;83;21028;-78
2021/07/06 05:21:28;;;;;;;3.08;2.87;;;;;;;25.96;54.23;99847.55;1693900;83;21002;-78
2021/07/06 05:23:56;;;;;;;3.12;2.92;;;;;;;26.23;53.70;99855.72;1697223;83;21058;-76
2021/07/06 05:26:25;;;;;;;5.65;3.15;;;;;;;26.49;53.08;99841.52;1692215;83;21204;-75
2021/07/06 05:28:51;;;;;;;8.40;3.27;;;;;;;26.60;52.77;99845.67;1698957;83;20999;-76
2021/07/06 05:31:16;;;;;;;5.83;3.20;;;;;;;26.67;52.49;99852.64;1693195;83;21064;-82
2021/07/06 05:33:42;;;;;;;3.58;3.30;;;;;;;26.69;52.34;99843.56;1693643;85;20990;-75
2021/07/06 05:36:08;;;;;;;3.27;3.08;;;;;;;26.62;52.59;99850.84;1694996;83;20992;-75
2021/07/06 05:38:35;;;;;;;3.05;2.85;;;;;;;26.61;52.56;99847.28;1697776;83;21571;-74
2021/07/06 05:41:03;;;;;;;3.42;3.15;;;;;;;26.63;52.63;99851.64;1694768;83;21030;-75
2021/07/06 05:43:30;;;;;;;3.62;2.85;;;;;;;26.69;52.96;99845.77;1692884;83;21071;-76
2021/07/06 05:48:18;;;;;;;3.33;2.98;;;;;;;26.54;53.41;99842.78;1797191;78;22953;-76
2021/07/06 05:50:46;;;;;;;3.00;2.80;;;;;;;26.40;53.64;99846.09;1745799;80;21107;-74
2021/07/06 05:53:13;;;;;;;3.83;3.58;;;;;;;26.33;53.66;99857.42;1757530;81;21002;-75
2021/07/06 05:55:42;;;;;;;4.12;3.12;;;;;;;26.27;53.64;99849.65;1734010;80;21099;-72
2021/07/06 05:58:09;;;;;;;4.25;3.42;;;;;;;26.28;53.97;99856.18;1706419;83;21053;-73
2021/07/06 06:00:37;;;;;;;4.15;3.77;;;;;;;26.18;54.26;99853.11;1699513;83;21016;-74
2021/07/06 06:03:07;;;;;;;3.98;3.67;;;;;;;26.12;54.94;99854.30;1692706;83;21009;-78
2021/07/06 06:05:32;;;;;;;3.33;3.12;;;;;;;26.23;54.59;99854.34;1701158;83;21048;-75
2021/07/06 06:07:58;;;;;;;2.90;2.70;;;;;;;26.50;53.86;99866.34;1691317;83;21116;-80
2021/07/06 06:10:25;;;;;;;3.83;3.62;;;;;;;26.69;53.29;99862.17;1701687;83;21037;-77
2021/07/06 06:12:50;;;;;;;3.67;3.47;;;;;;;26.77;53.05;99867.46;1700710;83;20997;-78
2021/07/06 06:15:19;;;;;;;3.83;3.15;;;;;;;26.99;52.46;99858.45;1704627;83;21093;-78
2021/07/06 06:17:47;;;;;;;4.15;3.83;;;;;;;27.26;52.32;99854.84;1702302;83;21035;-77
2021/07/06 06:20:14;;;;;;;4.37;3.98;;;;;;;27.44;51.35;99866.68;1704463;84;21013;-79
2021/07/06 06:22:40;;;;;;;3.30;3.10;;;;;;;27.42;51.21;99866.76;1710487;81;20961;-77
2021/07/06 06:25:09;;;;;;;3.87;3.47;;;;;;;27.52;50.92;99876.89;1720518;81;21452;-78
2021/07/06 06:27:35;;;;;;;5.08;3.08;;;;;;;27.62;50.56;99870.91;1708015;83;21029;-77
2021/07/06 06:30:03;;;;;;;3.33;3.12;;;;;;;27.57;50.58;99870.46;1702853;83;21009;-78
2021/07/06 06:32:29;;;;;;;3.90;3.67;;;;;;;27.41;50.96;99870.59;1708343;83;21149;-77
2021/07/06 06:34:56;;;;;;;4.05;3.65;;;;;;;27.34;51.50;99874.59;1672676;82;21032;-77
2021/07/06 06:37:22;;;;;;;3.67;3.40;;;;;;;27.29;51.55;99878.02;1650508;85;20977;-76
2021/07/06 06:39:48;;;;;;;3.90;3.70;;;;;;;27.24;51.90;99880.84;1642181;85;21620;-79
2021/07/06 06:42:14;;;;;;;4.17;3.85;;;;;;;27.30;52.08;99870.87;1652613;85;20998;-76
2021/07/06 06:44:40;;;;;;;3.67;3.33;;;;;;;27.42;52.13;99877.13;1643918;85;21059;-72
2021/07/06 06:47:06;;;;;;;5.90;3.47;;;;;;;27.73;51.81;99876.36;1595038;88;21062;-75
2021/07/06 06:49:35;;;;;;;5.17;3.87;;;;;;;28.00;50.88;99871.27;1593582;88;21102;-74
2021/07/06 06:52:02;;;;;;;6.90;3.67;;;;;;;28.24;50.07;99868.12;1587665;88;22355;-75
2021/07/06 06:54:28;;;;;;;3.77;3.37;;;;;;;28.34;49.75;99869.75;1616324;87;21078;-75
2021/07/06 06:56:54;;;;;;;3.35;3.10;;;;;;;28.27;49.64;99877.06;1612746;88;21121;-73
2021/07/06 06:59:20;;;;;;;4.17;3.62;;;;;;;28.22;50.07;99871.75;1577795;89;21081;-76
2021/07/06 07:01:47;;;;;;;5.55;3.00;;;;;;;28.17;49.74;99869.72;1641991;85;20998;-74
2021/07/06 07:04:13;;;;;;;4.37;4.08;;;;;;;27.95;50.26;99867.28;1663506;85;21553;-75
2021/07/06 07:06:39;;;;;;;3.77;3.22;;;;;;;27.86;50.56;99867.23;1667969;85;21066;-76
2021/07/06 07:09:08;;;;;;;4.05;3.12;;;;;;;27.81;50.23;99876.16;1656520;85;21530;-74
2021/07/06 07:11:35;;;;;;;4.25;3.83;;;;;;;27.81;50.75;99866.57;1667782;85;21037;-77
2021/07/06 07:14:02;;;;;;;4.83;4.15;;;;;;;27.87;50.79;99856.52;1627848;87;21166;-74
2021/07/06 07:16:28;;;;;;;3.70;3.47;;;;;;;27.96;50.73;99866.97;1618735;87;21654;-75
2021/07/06 07:18:55;;;;;;;4.03;3.50;;;;;;;28.06;49.95;99865.88;1622514;87;21437;-75
2021/07/06 07:21:21;;;;;;;3.80;3.25;;;;;;;28.17;49.87;99860.12;1622773;87;21075;-76
2021/07/06 07:23:47;;;;;;;3.33;2.98;;;;;;;28.18;49.33;99868.58;1637713;86;21034;-76
2021/07/06 07:26:13;;;;;;;5.75;3.80;;;;;;;27.92;49.95;99864.63;1631985;85;21120;-75
2021/07/06 07:28:41;;;;;;;3.47;3.27;;;;;;;27.93;50.02;99872.28;1637112;86;21503;-76
2021/07/06 07:31:07;;;;;;;2.80;2.60;;;;;;;28.01;49.64;99880.28;1638484;86;21543;-76
2021/07/06 07:33:35;;;;;;;4.65;3.15;;;;;;;27.90;49.96;99892.09;1633533;86;21071;-76
2021/07/06 07:36:03;;;;;;;3.80;3.60;;;;;;;27.62;50.77;99879.13;1631875;86;21118;-76
2021/07/06 07:38:30;;;;;;;3.85;3.33;;;;;;;27.43;50.93;99873.86;1637421;86;21109;-78
2021/07/06 07:40:56;;;;;;;3.87;2.90;;;;;;;27.31;51.43;99882.61;1643271;86;21129;-77
2021/07/06 07:43:23;;;;;;;4.15;3.75;;;;;;;27.11;52.11;99881.17;1638894;86;21098;-74
2021/07/06 07:45:49;;;;;;;4.15;3.72;;;;;;;26.89;52.76;99881.38;1624755;86;21045;-75
2021/07/06 07:48:15;;;;;;;4.20;4.00;;;;;;;26.83;53.00;99880.45;1618960;88;21522;-78
2021/07/06 07:50:41;;;;;;;5.55;3.95;;;;;;;26.75;53.53;99882.00;1628154;86;21081;-76
2021/07/06 07:53:07;;;;;;;3.83;3.62;;;;;;;26.78;53.55;99886.83;1623454;87;21101;-79
2021/07/06 07:55:34;;;;;;;4.40;4.00;;;;;;;26.87;53.15;99884.19;1628741;85;21058;-79
2021/07/06 07:58:00;;;;;;;4.08;3.70;;;;;;;27.01;52.91;99880.83;1627330;86;21043;-75
2021/07/06 08:00:26;;;;;;;4.45;4.15;;;;;;;27.20;52.68;99886.15;1621969;86;21132;-74
2021/07/06 08:02:52;;;;;;;4.30;4.10;;;;;;;27.30;52.26;99885.92;1636020;86;21486;-74
2021/07/06 08:05:19;;;;;;;10.72;3.45;;;;;;;27.48;51.68;99888.77;1607036;88;21086;-74
2021/07/06 08:07:45;;;;;;;5.97;3.98;;;;;;;27.58;51.73;99881.67;1606152;87;21031;-74
2021/07/06 08:10:12;;;;;;;3.70;3.37;;;;;;;27.75;51.61;99889.97;1599234;88;21535;-73
2021/07/06 08:12:39;;;;;;;3.87;3.58;;;;;;;27.86;51.07;99878.73;1616162;87;21167;-74
2021/07/06 08:15:06;;;;;;;6.12;3.90;;;;;;;27.87;51.14;99874.88;1635177;86;21074;-74
2021/07/06 08:17:34;;;;;;;4.20;3.90;;;;;;;27.83;51.64;99881.55;1640950;86;21137;-75
2021/07/06 08:20:00;;;;;;;4.45;4.03;;;;;;;27.80;51.28;99875.89;1641570;86;21034;-76
2021/07/06 08:22:28;;;;;;;3.95;3.75;;;;;;;27.83;51.50;99879.38;1632460;86;21534;-74
2021/07/06 08:24:55;;;;;;;4.55;3.60;;;;;;;27.89;51.34;99884.99;1638986;86;21148;-76
2021/07/06 08:27:21;;;;;;;5.75;3.92;;;;;;;27.91;51.28;99886.84;1637836;86;21060;-75
2021/07/06 08:29:47;;;;;;;4.05;3.77;;;;;;;27.95;51.37;99879.61;1626166;87;21125;-77
2021/07/06 08:32:14;;;;;;;4.25;3.92;;;;;;;28.08;51.69;99877.33;1626512;87;21069;-78
2021/07/06 08:34:40;;;;;;;5.03;3.60;;;;;;;28.21;51.08;99885.19;1636156;86;21577;-79
2021/07/06 08:37:07;;;;;;;3.77;3.47;;;;;;;28.27;50.89;99891.33;1641195;86;21072;-81
2021/07/06 08:39:33;;;;;;;3.85;3.42;;;;;;;28.01;51.39;99892.61;1640304;86;21602;-81
2021/07/06 08:42:00;;;;;;;3.37;3.05;;;;;;;27.78;51.87;99892.63;1642783;86;21094;-79
2021/07/06 08:44:27;;;;;;;4.37;3.87;;;;;;;27.65;51.98;99888.89;1648627;86;21455;-80
2021/07/06 08:46:56;;;;;;;4.58;4.15;;;;;;;27.58;52.33;99879.73;1636390;86;22122;-78
2021/07/06 08:49:25;;;;;;;3.85;3.58;;;;;;;27.58;52.19;99883.84;1627628;86;21057;-75
2021/07/06 08:51:51;;;;;;;3.85;3.55;;;;;;;27.61;52.37;99894.72;1653801;85;21512;-75
2021/07/06 08:54:20;;;;;;;4.60;4.15;;;;;;;27.62;51.83;99889.50;1630506;86;21524;-77
2021/07/06 08:56:47;;;;;;;4.40;4.00;;;;;;;27.65;52.00;99888.05;1654618;85;21018;-75
2021/07/06 08:59:14;;;;;;;3.17;2.98;;;;;;;27.73;51.71;99895.53;1661161;85;21048;-79
2021/07/06 09:01:40;;;;;;;3.40;3.10;;;;;;;27.78;51.61;99904.95;1644502;85;21056;-74
2021/07/06 09:04:06;;;;;;;3.60;3.37;;;;;;;27.82;50.82;99895.55;1625925;86;21109;-74
2021/07/06 09:06:54;;;;;;;6.58;3.08;;;;;;;27.82;51.19;99891.45;1621629;86;21071;-76
2021/07/06 09:09:32;;;;;;;6.12;3.30;;;;;;;27.79;51.50;99896.20;1635828;86;21494;-75
2021/07/06 09:11:57;;;;;;;2.72;1.87;;;;;;;27.70;51.39;99883.82;1644628;85;20970;-76
2021/07/06 09:14:27;;;;;;;2.90;2.20;;;;;;;27.64;50.00;99898.20;1664920;85;21041;-75
2021/07/06 09:17:16;;;;;;;3.25;1.92;;;;;;;27.64;49.06;99891.36;1651441;85;21078;-75
2021/07/06 09:19:48;;;;;;;8.25;2.10;;;;;;;27.66;48.89;99880.91;1631145;85;21495;-74
2021/07/06 09:22:31;;;;;;;1.87;1.60;;;;;;;27.73;49.25;99894.16;1650021;84;21087;-75
2021/07/06 09:25:07;;;;;;;4.10;2.50;;;;;;;27.79;49.29;99897.57;1622080;87;21226;-74
2021/07/06 09:27:39;;;;;;;1.92;1.82;;;;;;;27.90;48.95;99884.68;1619714;87;21089;-75
2021/07/06 09:30:16;;;;;;;3.70;1.80;;;;;;;28.01;48.46;99898.91;1618068;87;21034;-75
2021/07/06 09:32:54;;;;;;;2.33;2.25;;;;;;;28.07;47.60;99901.75;1618184;87;21655;-76
2021/07/06 09:35:28;;;;;;;2.55;2.35;;;;;;;28.01;47.67;99896.17;1612615;87;21043;-77
2021/07/06 09:38:02;;;;;;;3.80;1.90;;;;;;;27.92;48.20;99905.71;1613448;87;21563;-74
2021/07/06 09:40:38;;;;;;;1.62;1.52;;;;;;;27.91;48.12;99908.77;1604433;88;21590;-78
2021/07/06 09:43:28;;;;;;;1.55;1.15;;;;;;;27.96;47.53;99903.16;1615332;87;21050;-74
2021/07/06 09:46:05;;;;;;;2.08;1.80;;;;;;;28.03;47.42;99913.64;1599873;88;21122;-73
2021/07/06 09:48:33;;;;;;;4.33;1.80;;;;;;;28.08;47.05;99896.50;1594089;88;21118;-74
2021/07/06 09:51:18;;;;;;;1.45;1.42;;;;;;;28.11;47.44;99899.98;1623316;87;21064;-75
2021/07/06 09:53:51;;;;;;;4.53;1.65;;;;;;;28.16;47.31;99907.24;1623220;87;21613;-72
2021/07/06 09:56:22;;;;;;;2.47;1.52;;;;;;;28.25;46.12;99905.91;1620060;86;21039;-75
2021/07/06 09:59:03;;;;;;;1.37;1.27;;;;;;;28.27;46.62;99908.57;1617428;87;21048;-76
2021/07/06 10:01:31;;;;;;;1.85;1.75;;;;;;;28.24;46.64;99923.50;1627090;87;21568;-75
2021/07/06 10:03:59;;;;;;;1.62;1.52;;;;;;;28.13;47.63;99909.27;1619700;87;21114;-75
2021/07/06 10:06:29;;;;;;;2.77;2.00;;;;;;;28.03;48.57;99933.64;1619488;87;21399;-74
2021/07/06 10:08:57;;;;;;;4.17;1.57;;;;;;;28.01;48.72;99911.24;1598122;88;21053;-77
2021/07/06 10:11:25;;;;;;;4.72;2.40;;;;;;;28.05;48.92;99923.72;1607926;88;21209;-77
2021/07/06 10:13:55;;;;;;;2.52;2.33;;;;;;;28.12;48.53;99921.34;1611390;87;21041;-77
2021/07/06 10:16:21;;;;;;;2.40;1.72;;;;;;;28.17;48.88;99905.34;1609347;87;21118;-78
2021/07/06 10:18:50;;;;;;;2.12;2.00;;;;;;;28.20;49.03;99904.14;1596630;88;21570;-78
2021/07/06 10:21:16;;;;;;;1.95;1.85;;;;;;;28.21;48.34;99897.52;1606775;88;21036;-78
2021/07/06 10:23:50;;;;;;;1.70;1.60;;;;;;;28.18;48.04;99904.19;1630317;86;21311;-79
2021/07/06 10:26:24;;;;;;;3.45;2.52;;;;;;;28.12;47.97;99908.47;1649340;84;21169;-79
2021/07/06 10:28:52;;;;;;;2.00;1.90;;;;;;;28.07;48.69;99905.06;1650652;85;21180;-77
2021/07/06 10:31:21;;;;;;;1.50;1.40;;;;;;;27.91;48.90;99916.41;1667358;85;21204;-76
2021/07/06 10:33:49;;;;;;;2.20;1.80;;;;;;;27.82;48.32;99905.97;1646989;85;21138;-77
2021/07/06 10:36:17;;;;;;;2.25;1.37;;;;;;;27.76;47.29;99925.00;1612153;87;21109;-78
2021/07/06 10:38:50;;;;;;;2.05;1.87;;;;;;;27.71;47.36;99916.94;1616096;87;21064;-78
2021/07/06 10:41:41;;;;;;;2.67;1.92;;;;;;;27.70;47.89;99919.42;1617413;86;21126;-75
2021/07/06 10:44:07;;;;;;;1.72;1.62;;;;;;;27.73;48.10;99925.08;1592627;86;21124;-77
2021/07/06 10:46:43;;;;;;;2.83;1.70;;;;;;;27.80;48.13;99915.59;1617423;87;21112;-77
2021/07/06 10:49:33;;;;;;;4.15;1.75;;;;;;;27.87;48.46;99922.81;1604347;87;21082;-75
2021/07/06 10:52:02;;;;;;;4.37;1.92;;;;;;;27.95;48.61;99920.70;1593085;88;21174;-76
2021/07/06 10:54:37;;;;;;;9.83;1.70;;;;;;;28.03;47.53;99910.36;1598347;88;21623;-77
2021/07/06 10:57:13;;;;;;;2.15;2.05;;;;;;;28.07;47.16;99915.45;1641234;85;21034;-77
2021/07/06 10:59:40;;;;;;;;;;;;;;;28.08;47.92;99929.38;1648067;85;21116;-77
2021/07/06 11:02:12;;;;;;;;;;;;;;;28.08;48.66;99933.48;1635529;86;20487;-77
2021/07/06 11:04:47;;;;;;;3.17;1.95;;;;;;;28.00;49.11;99938.38;1661335;85;20337;-77
2021/07/06 11:07:37;;;;;;;2.55;1.75;;;;;;;27.91;48.76;99927.93;1662064;85;21096;-77
2021/07/06 11:10:07;;;;;;;3.42;2.55;;;;;;;27.89;48.96;99911.01;1646231;85;21140;-76
2021/07/06 11:12:46;;;;;;;2.20;2.10;;;;;;;27.89;49.28;99915.11;1639202;85;21604;-77
2021/07/06 11:15:21;;;;;;;2.00;1.90;;;;;;;27.91;49.60;99930.67;1633720;86;21104;-75
2021/07/06 11:18:08;;;;;;;3.77;2.45;;;;;;;27.94;49.57;99938.27;1632180;86;21084;-76
2021/07/06 11:20:40;;;;;;;2.22;2.12;;;;;;;27.92;49.72;99937.20;1635485;86;21128;-75
2021/07/06 11:23:16;;;;;;;6.53;2.67;;;;;;;27.89;50.12;99940.56;1631212;86;21039;-85
2021/07/06 11:25:45;;;;;;;1.87;1.75;;;;;;;27.84;50.30;99935.21;1622346;87;21061;-83
2021/07/06 11:28:26;;;;;;;3.65;2.58;;;;;;;27.81;50.57;99941.88;1622403;87;21545;-84
2021/07/06 11:31:03;;;;;;;3.40;1.75;;;;;;;27.80;50.73;99938.88;1619611;87;21602;-80
2021/07/06 11:33:39;;;;;;;3.25;1.62;;;;;;;27.80;50.42;99947.89;1622972;87;21145;-83
2021/07/06 11:36:08;;;;;;;2.42;2.22;;;;;;;27.80;50.54;99944.35;1620196;87;21013;-80
2021/07/06 11:38:44;;;;;;;3.98;2.85;;;;;;;27.80;50.80;99945.72;1626284;87;21079;-79
2021/07/06 11:41:14;;;;;;;2.02;1.92;;;;;;;27.78;50.99;99948.77;1623613;87;21060;-81
2021/07/06 11:43:42;;;;;;;2.58;2.47;;;;;;;27.77;50.59;99947.16;1623281;87;21045;-81